Time;durP1;ratioP1;P1;durP2;ratioP2;P2;SDS_P1;SDS_P2;PMS_P1;PMS_P2;Temp;Humidity;BMP_temperature;BMP_pressure;BME280_temperature;BME280_humidity;BME280_pressure;Samples;Min_cycle;Max_cycle;Signal;HPM_P1;HPM_P2
2021/05/17 00:01:07;;;;;;;1.58;0.70;;;9.60;71.90;;;12.68;57.41;100075.84;5044417;27;97740;-71
2021/05/17 00:03:42;;;;;;;0.10;0.10;;;9.60;71.90;;;12.70;57.86;100077.06;5048272;27;97113;-71
2021/05/17 00:06:12;;;;;;;3.10;0.70;;;9.60;71.90;;;12.70;57.39;100079.75;5027796;27;97273;-71
2021/05/17 00:08:42;;;;;;;2.70;0.77;;;9.50;71.90;;;12.74;57.76;100071.84;5040689;27;96793;-72
2021/05/17 00:11:11;;;;;;;0.10;0.10;;;9.50;71.90;;;12.78;57.72;100064.66;5030236;27;97023;-72
2021/05/17 00:13:40;;;;;;;0.35;0.35;;;9.50;72.00;;;12.76;57.83;100065.03;5031496;27;98169;-71
2021/05/17 00:16:10;;;;;;;0.20;0.20;;;9.50;72.00;;;12.77;57.67;100052.34;5032769;27;96821;-71
2021/05/17 00:18:40;;;;;;;3.10;1.25;;;9.50;72.00;;;12.73;57.69;100056.81;5048888;27;97145;-72
2021/05/17 00:21:09;;;;;;;0.10;0.10;;;9.50;72.00;;;12.74;57.30;100063.78;5027687;27;98031;-71
2021/05/17 00:23:38;;;;;;;29.67;1.23;;;9.50;72.00;;;12.70;57.46;100060.19;5045581;27;98118;-72
2021/05/17 00:26:12;;;;;;;0.10;0.10;;;9.50;72.00;;;12.59;57.63;100053.63;5023896;27;96926;-71
2021/05/17 00:28:41;;;;;;;21.90;1.40;;;9.60;72.10;;;12.57;57.75;100055.84;5027386;27;97066;-71
2021/05/17 00:31:10;;;;;;;0.52;0.30;;;9.50;72.00;;;12.65;58.05;100049.63;5047258;27;96816;-72
2021/05/17 00:33:40;;;;;;;0.15;0.15;;;9.50;72.00;;;12.67;57.44;100053.56;5040684;27;97700;-72
2021/05/17 00:36:10;;;;;;;0.47;0.47;;;9.50;72.10;;;12.75;57.99;100055.34;5029383;27;97307;-71
2021/05/17 00:38:40;;;;;;;0.20;0.20;;;9.50;72.00;;;12.79;57.70;100061.66;5049359;27;96952;-71
2021/05/17 00:41:09;;;;;;;1.85;1.20;;;9.50;72.00;;;12.79;57.74;100060.88;5047790;27;97832;-72
2021/05/17 00:43:38;;;;;;;0.55;0.35;;;9.50;72.00;;;12.78;58.14;100060.09;5044317;27;97758;-72
2021/05/17 00:46:10;;;;;;;0.10;0.10;;;9.60;72.10;;;12.78;57.79;100061.97;5030393;27;97294;-71
2021/05/17 00:48:41;;;;;;;0.45;0.40;;;9.60;72.00;;;12.84;57.06;100058.75;5046241;27;96688;-71
2021/05/17 00:51:11;;;;;;;0.75;0.75;;;9.60;72.10;;;12.86;57.67;100055.72;5014538;27;99133;-71
2021/05/17 00:53:41;;;;;;;0.68;0.68;;;9.60;72.00;;;12.90;57.80;100056.63;5047646;27;97151;-71
2021/05/17 00:56:12;;;;;;;0.52;0.47;;;9.60;72.00;;;12.92;57.51;100049.06;5048438;27;96929;-71
2021/05/17 00:58:45;;;;;;;0.20;0.20;;;9.60;72.00;;;12.95;57.25;100053.78;5032152;27;96887;-71
2021/05/17 01:01:16;;;;;;;0.60;0.60;;;9.70;72.10;;;12.98;57.28;100061.94;5010119;27;97066;-71
2021/05/17 01:03:46;;;;;;;0.08;0.08;;;9.70;72.10;;;13.01;57.50;100065.88;5045946;27;96880;-71
2021/05/17 01:06:22;;;;;;;0.20;0.20;;;9.70;72.10;;;13.06;57.22;100065.66;5027367;27;96978;-71
2021/05/17 01:08:59;;;;;;;3.42;0.40;;;9.70;72.10;;;13.02;57.08;100064.75;5043795;27;97582;-71
2021/05/17 01:11:34;;;;;;;0.10;0.10;;;9.70;72.70;;;13.04;57.11;100062.53;5046864;27;96789;-71
2021/05/17 01:14:08;;;;;;;0.70;0.70;;;9.70;72.00;;;13.09;57.45;100059.63;5029106;27;98398;-71
2021/05/17 01:16:40;;;;;;;0.80;0.80;;;9.70;72.10;;;13.13;57.20;100060.50;5046950;27;96911;-71
2021/05/17 01:19:33;;;;;;;0.20;0.20;;;9.80;72.10;;;13.15;57.13;100066.34;5044483;27;96948;-71
2021/05/17 01:22:10;;;;;;;1.25;1.15;;;9.80;72.10;;;13.12;56.96;100058.94;5044309;27;97081;-71
2021/05/17 01:24:41;;;;;;;0.17;0.17;;;9.80;72.10;;;13.13;57.42;100063.22;5046881;27;96946;-71
2021/05/17 01:27:12;;;;;;;1.63;1.13;;;9.80;72.00;;;13.09;57.76;100059.63;5028967;27;97824;-71
2021/05/17 01:29:41;;;;;;;1.20;0.95;;;9.80;72.10;;;13.09;57.29;100063.09;5015304;27;96917;-71
2021/05/17 01:32:12;;;;;;;0.68;0.68;;;9.80;72.10;;;13.16;57.34;100057.16;5030030;27;97912;-71
2021/05/17 01:34:44;;;;;;;0.95;0.95;;;9.80;72.10;;;13.22;56.84;100063.91;5031237;27;97360;-71
2021/05/17 01:37:15;;;;;;;3.92;0.90;;;9.90;72.10;;;13.17;57.26;100058.72;5045391;27;97335;-71
2021/05/17 01:39:47;;;;;;;0.80;0.80;;;9.80;72.10;;;13.25;56.74;100063.25;5029925;27;96860;-71
2021/05/17 01:42:18;;;;;;;21.35;0.85;;;9.90;72.20;;;13.28;57.17;100063.34;5044755;27;98237;-71
2021/05/17 01:44:49;;;;;;;0.35;0.35;;;9.90;72.10;;;13.31;56.81;100064.59;5032298;27;98367;-71
2021/05/17 01:47:25;;;;;;;1.90;0.95;;;9.90;72.20;;;13.24;57.35;100065.13;5010609;27;97054;-71
2021/05/17 01:49:55;;;;;;;0.50;0.50;;;9.90;72.10;;;13.26;57.29;100064.81;5049940;27;96830;-72
2021/05/17 01:52:26;;;;;;;1.38;0.93;;;9.90;72.20;;;13.28;57.16;100062.56;5033397;27;97969;-71
2021/05/17 01:54:58;;;;;;;0.30;0.30;;;9.90;72.20;;;13.33;56.74;100065.03;5016670;27;97712;-71
2021/05/17 01:57:27;;;;;;;1.35;0.75;;;9.90;72.10;;;13.41;56.58;100072.19;5044686;27;96750;-71
2021/05/17 01:59:56;;;;;;;0.45;0.45;;;9.90;72.20;;;13.32;56.74;100063.47;5016336;27;96951;-71
2021/05/17 02:02:26;;;;;;;10.68;1.83;;;9.90;72.20;;;13.22;57.51;100063.91;5032214;27;97674;-71
2021/05/17 02:04:55;;;;;;;0.40;0.40;;;9.90;72.20;;;13.23;56.94;100063.56;5031935;27;97730;-72
2021/05/17 02:07:23;;;;;;;1.88;1.17;;;9.90;72.20;;;13.33;57.28;100065.78;5030147;27;97180;-71
2021/05/17 02:09:54;;;;;;;0.15;0.15;;;9.90;72.20;;;13.32;57.61;100068.84;5045060;27;98288;-72
2021/05/17 02:12:25;;;;;;;3.53;2.10;;;9.90;72.20;;;13.29;57.34;100066.81;5023594;27;97967;-71
2021/05/17 02:14:56;;;;;;;0.30;0.30;;;9.90;72.30;;;13.24;57.41;100061.66;5013688;27;97747;-71
2021/05/17 02:17:30;;;;;;;1.10;0.88;;;9.90;72.20;;;13.28;57.26;100063.34;5011098;27;96899;-71
2021/05/17 02:19:59;;;;;;;0.65;0.65;;;10.00;72.30;;;13.31;57.36;100068.03;5048091;27;97538;-71
2021/05/17 02:22:44;;;;;;;3.17;2.67;;;9.90;72.30;;;13.31;57.29;100068.03;5016353;27;98702;-72
2021/05/17 02:25:23;;;;;;;0.57;0.57;;;10.00;72.30;;;13.41;57.37;100072.19;5033739;27;99142;-71
2021/05/17 02:27:57;;;;;;;3.05;0.43;;;10.00;72.30;;;13.42;57.28;100071.88;5032142;27;96937;-71
2021/05/17 02:30:28;;;;;;;0.22;0.22;;;10.00;72.30;;;13.47;56.79;100076.22;5048982;27;97050;-71
2021/05/17 02:32:57;;;;;;;0.30;0.30;;;10.00;72.30;;;13.39;56.68;100077.94;5034061;27;98071;-70
2021/05/17 02:35:35;;;;;;;0.73;0.73;;;10.00;72.40;;;13.30;57.43;100077.22;5047069;27;97969;-70
2021/05/17 02:38:07;;;;;;;0.47;0.47;;;10.00;72.40;;;13.28;57.57;100076.03;5049597;27;97311;-70
2021/05/17 02:40:38;;;;;;;1.50;0.75;;;10.00;72.40;;;13.40;57.41;100078.72;5028530;27;97041;-70
2021/05/17 02:43:11;;;;;;;3.55;0.50;;;10.00;72.40;;;13.38;57.32;100083.63;5012195;27;96845;-70
2021/05/17 02:45:57;;;;;;;1.55;1.10;;;10.00;72.40;;;13.36;57.12;100084.00;5049058;27;97751;-70
2021/05/17 02:48:32;;;;;;;13.25;0.70;;;10.00;72.40;;;13.30;57.75;100081.84;5030295;27;96686;-70
2021/05/17 02:51:03;;;;;;;0.10;0.10;;;10.00;72.40;;;13.25;57.70;100077.47;5052384;27;97153;-71
2021/05/17 02:54:09;;;;;;;0.52;0.52;;;10.00;72.40;;;13.32;57.98;100084.97;5046251;27;97878;-70
2021/05/17 02:57:09;;;;;;;0.05;0.05;;;10.00;72.40;;;13.41;57.02;100088.34;5027076;27;97662;-70
2021/05/17 03:00:18;;;;;;;0.43;0.43;;;10.00;72.50;;;13.39;57.47;100082.50;5037572;27;97327;-70
2021/05/17 03:03:04;;;;;;;0.52;0.52;;;10.00;72.40;;;13.49;56.92;100088.25;5032204;27;97002;-71
2021/05/17 03:06:03;;;;;;;0.43;0.43;;;10.10;72.50;;;13.56;56.81;100088.47;5035282;27;99410;-70
2021/05/17 03:08:53;;;;;;;0.30;0.30;;;10.10;72.50;;;13.52;56.83;100087.56;5032376;27;97599;-70
2021/05/17 03:11:27;;;;;;;0.30;0.30;;;10.10;72.50;;;13.56;56.70;100079.63;5027961;27;97151;-70
2021/05/17 03:13:58;;;;;;;;;;;10.00;72.40;;;13.54;57.30;100082.63;5031496;27;96923;-71
2021/05/17 03:16:32;;;;;;;0.30;0.30;;;10.10;72.60;;;13.55;56.91;100083.44;5030648;27;99334;-70
2021/05/17 03:19:05;;;;;;;0.17;0.17;;;10.10;72.50;;;13.53;57.30;100086.44;5046271;27;97867;-72
2021/05/17 03:21:34;;;;;;;0.10;0.10;;;10.10;72.50;;;13.52;57.07;100086.81;5042453;27;96838;-71
2021/05/17 03:24:07;;;;;;;7.78;1.17;;;10.10;72.50;;;13.50;57.31;100081.75;5011480;27;96760;-70
2021/05/17 03:26:38;;;;;;;1.13;0.85;;;10.10;72.50;;;13.54;57.14;100088.03;5045097;27;97937;-70
2021/05/17 03:29:06;;;;;;;0.17;0.17;;;10.20;72.50;;;13.54;57.31;100087.25;5044825;27;97612;-70
2021/05/17 03:31:35;;;;;;;0.30;0.30;;;10.20;72.50;;;13.64;57.21;100087.56;5044102;27;97075;-70
2021/05/17 03:34:04;;;;;;;0.57;0.57;;;10.20;72.50;;;13.65;57.18;100089.13;5050260;27;96956;-71
2021/05/17 03:36:32;;;;;;;0.50;0.50;;;10.20;72.50;;;13.65;57.06;100094.50;5040165;27;96958;-70
2021/05/17 03:39:00;;;;;;;0.65;0.65;;;10.20;72.50;;;13.63;57.08;100096.00;5031070;27;97710;-70
2021/05/17 03:41:31;;;;;;;0.20;0.20;;;10.20;72.50;;;13.68;57.07;100096.56;5048902;27;96893;-71
2021/05/17 03:43:59;;;;;;;0.25;0.25;;;10.20;72.50;;;13.65;57.49;100099.13;5046557;27;96682;-70
2021/05/17 03:46:30;;;;;;;0.30;0.30;;;10.20;72.50;;;13.70;57.00;100096.19;5046577;27;97870;-71
2021/05/17 03:49:02;;;;;;;1.48;1.00;;;10.20;72.50;;;13.76;56.96;100095.66;5044988;27;97571;-71
2021/05/17 03:51:30;;;;;;;0.10;0.10;;;10.20;72.50;;;13.63;57.20;100096.75;5013540;27;98703;-71
2021/05/17 03:53:59;;;;;;;0.10;0.10;;;10.20;72.50;;;13.69;57.08;100087.34;5030135;27;96867;-71
2021/05/17 03:56:27;;;;;;;0.10;0.10;;;10.30;72.60;;;13.67;57.17;100092.28;5046407;27;96710;-71
2021/05/17 03:58:55;;;;;;;1.45;1.05;;;10.30;73.30;;;13.71;57.22;100087.81;5048045;27;97756;-71
2021/05/17 04:01:24;;;;;;;0.03;0.03;;;10.20;72.60;;;13.71;57.09;100092.38;5024539;27;97308;-70
2021/05/17 04:03:54;;;;;;;0.32;0.32;;;10.20;72.50;;;13.75;57.10;100094.06;5047758;27;97137;-71
2021/05/17 04:06:26;;;;;;;0.52;0.45;;;10.20;72.60;;;13.77;56.90;100091.03;5034218;27;98451;-71
2021/05/17 04:14:27;;;;;;;0.22;0.22;;;10.20;72.60;;;13.72;57.07;100093.97;5048070;27;97174;-70
2021/05/17 04:16:55;;;;;;;0.50;0.50;;;10.30;72.60;;;13.73;57.18;100098.22;5013892;27;97958;-71
2021/05/17 04:19:27;;;;;;;0.13;0.13;;;10.30;72.60;;;13.68;57.43;100096.56;5044137;27;98120;-72
2021/05/17 04:21:56;;;;;;;0.10;0.10;;;10.30;72.60;;;13.70;57.08;100099.69;5030066;27;97437;-71
2021/05/17 04:24:24;;;;;;;0.10;0.10;;;10.20;72.60;;;13.70;57.30;100104.28;5028503;27;97255;-71
2021/05/17 04:26:52;;;;;;;0.20;0.20;;;10.20;72.60;;;13.67;57.11;100102.25;5028942;27;97329;-71
2021/05/17 04:29:21;;;;;;;0.10;0.10;;;10.30;72.70;;;13.71;57.59;100101.25;5049335;27;97481;-71
2021/05/17 04:31:49;;;;;;;0.20;0.20;;;10.30;72.70;;;13.67;57.51;100100.38;5011561;27;96873;-71
2021/05/17 04:34:21;;;;;;;0.30;0.30;;;10.30;72.70;;;13.68;57.78;100099.25;5047115;27;97052;-71
2021/05/17 04:36:49;;;;;;;0.10;0.10;;;10.30;72.70;;;13.72;57.67;100099.34;5048135;27;97881;-70
2021/05/17 04:39:19;;;;;;;0.40;0.30;;;10.30;72.60;;;13.75;57.50;100096.78;5045383;27;97642;-71
2021/05/17 04:41:48;;;;;;;0.10;0.10;;;10.30;72.70;;;13.77;57.18;100101.81;5027885;27;97062;-71
2021/05/17 04:44:16;;;;;;;0.50;0.50;;;10.40;72.70;;;13.70;57.65;100102.38;5049335;27;97713;-70
2021/05/17 04:46:44;;;;;;;0.57;0.57;;;10.40;72.60;;;13.70;57.61;100107.78;5045805;27;96603;-71
2021/05/17 04:49:12;;;;;;;0.17;0.17;;;10.40;72.70;;;13.72;57.56;100105.53;5025927;27;97191;-71
2021/05/17 04:51:40;;;;;;;1.00;0.30;;;10.40;72.70;;;13.81;57.68;100108.09;5028744;27;97290;-71
2021/05/17 04:54:08;;;;;;;0.40;0.40;;;10.40;72.70;;;13.83;57.75;100111.25;5029171;27;96956;-71
2021/05/17 04:56:38;;;;;;;0.10;0.10;;;10.40;72.70;;;13.81;57.31;100108.88;5046329;27;98070;-72
2021/05/17 04:59:06;;;;;;;1.05;1.05;;;10.40;72.70;;;13.88;57.23;100111.78;5025249;27;98020;-71
2021/05/17 05:01:34;;;;;;;1.13;0.20;;;10.40;72.70;;;13.89;57.41;100109.88;5026538;27;97213;-71
2021/05/17 05:04:05;;;;;;;0.50;0.50;;;10.50;72.80;;;13.92;57.49;100120.75;5051191;27;97082;-71
2021/05/17 05:06:33;;;;;;;1.35;0.65;;;10.50;72.80;;;13.97;57.70;100122.44;5013475;27;98139;-71
2021/05/17 05:09:05;;;;;;;0.55;0.55;;;10.50;72.80;;;14.01;57.21;100116.06;5050893;27;97085;-71
2021/05/17 05:11:33;;;;;;;0.50;0.50;;;10.60;72.90;;;14.12;57.34;100126.03;5036374;27;96943;-71
2021/05/17 05:14:04;;;;;;;0.20;0.20;;;10.60;72.80;;;14.25;56.96;100124.91;5024898;27;97060;-71
2021/05/17 05:16:32;;;;;;;0.20;0.20;;;10.70;72.90;;;14.38;57.06;100118.34;5047179;27;97071;-71
2021/05/17 05:19:00;;;;;;;0.10;0.10;;;10.70;72.90;;;14.55;56.71;100119.97;5033460;27;97662;-71
2021/05/17 05:21:30;;;;;;;0.10;0.10;;;10.80;72.90;;;14.77;56.50;100122.94;5039154;27;98161;-71
2021/05/17 05:23:59;;;;;;;1.55;0.40;;;11.00;73.00;;;14.88;56.45;100118.63;5032244;27;97575;-71
2021/05/17 05:26:51;;;;;;;0.10;0.10;;;11.10;73.00;;;15.01;56.18;100122.84;5034096;27;97390;-71
2021/05/17 05:29:28;;;;;;;0.13;0.13;;;11.20;72.90;;;15.02;56.79;100113.63;5029290;27;96850;-71
2021/05/17 05:31:59;;;;;;;5.43;1.85;;;11.30;72.80;;;15.01;56.75;100116.63;5029768;27;97006;-70
2021/05/17 05:34:30;;;;;;;0.65;0.65;;;11.40;72.70;;;15.00;56.38;100112.38;5016003;27;96965;-72
2021/05/17 05:36:59;;;;;;;0.57;0.57;;;11.40;72.60;;;15.02;56.23;100112.81;5050112;27;96822;-71
2021/05/17 05:39:29;;;;;;;0.30;0.30;;;11.40;72.60;;;14.96;56.83;100117.66;5050880;27;97463;-71
2021/05/17 05:41:58;;;;;;;0.25;0.25;;;11.40;72.60;;;14.96;57.04;100119.59;5047000;27;99913;-71
2021/05/17 05:44:27;;;;;;;4.45;0.73;;;11.50;72.60;;;14.90;56.94;100115.59;5017149;27;96985;-71
2021/05/17 05:46:55;;;;;;;0.30;0.30;;;11.50;73.20;;;14.88;57.30;100115.91;5030859;27;97898;-71
2021/05/17 05:49:24;;;;;;;0.10;0.10;;;11.50;72.60;;;14.95;56.83;100110.69;5046141;27;99402;-71
2021/05/17 05:51:52;;;;;;;0.85;0.63;;;11.50;72.60;;;14.94;57.47;100109.13;5030005;27;97465;-71
2021/05/17 05:54:20;;;;;;;1.63;1.15;;;11.50;72.70;;;14.99;57.62;100113.50;5050514;27;97374;-72
2021/05/17 05:56:49;;;;;;;0.93;0.55;;;11.50;72.70;;;14.92;57.43;100110.63;5046689;27;97780;-71
2021/05/17 05:59:24;;;;;;;0.30;0.30;;;11.50;72.80;;;15.05;57.30;100118.31;5031868;27;96758;-71
2021/05/17 06:01:54;;;;;;;0.32;0.32;;;11.50;72.70;;;15.16;56.94;100127.47;5042960;27;96798;-71
2021/05/17 06:04:22;;;;;;;0.75;0.75;;;11.50;72.70;;;15.29;56.92;100120.88;5031727;27;96848;-71
2021/05/17 06:06:51;;;;;;;3.63;0.43;;;11.60;72.80;;;15.37;56.93;100133.44;5047762;27;98265;-71
2021/05/17 06:09:19;;;;;;;0.28;0.28;;;11.70;72.80;;;15.37;56.40;100125.34;5029930;27;97842;-71
2021/05/17 06:11:49;;;;;;;0.57;0.57;;;11.70;72.80;;;15.38;56.55;100129.63;5033981;27;96884;-71
2021/05/17 06:14:18;;;;;;;2.03;0.75;;;11.80;72.80;;;15.48;56.36;100129.09;5027308;27;97590;-71
2021/05/17 06:16:47;;;;;;;0.30;0.30;;;11.80;72.80;;;15.57;56.35;100128.91;5045233;27;97910;-71
2021/05/17 06:19:18;;;;;;;0.55;0.52;;;11.90;72.80;;;15.76;56.58;100129.78;5045137;27;97897;-71
2021/05/17 06:21:47;;;;;;;0.22;0.22;;;12.00;72.90;;;15.91;56.42;100132.47;5032115;27;97067;-71
2021/05/17 06:24:19;;;;;;;0.52;0.40;;;12.00;72.90;;;15.87;56.46;100137.00;5030223;27;97269;-71
2021/05/17 06:26:48;;;;;;;0.10;0.10;;;12.10;72.80;;;15.82;56.50;100131.88;5031445;27;98482;-72
2021/05/17 06:29:17;;;;;;;0.65;0.52;;;12.10;72.70;;;15.79;56.09;100132.56;5046738;27;98165;-71
2021/05/17 06:31:48;;;;;;;0.10;0.10;;;12.10;72.60;;;15.75;56.96;100136.31;5028354;27;97530;-71
2021/05/17 06:34:19;;;;;;;0.03;0.03;;;12.10;73.30;;;15.68;56.76;100138.84;5030790;27;97339;-71
2021/05/17 06:36:47;;;;;;;0.68;0.68;;;12.10;72.70;;;15.61;57.53;100144.06;5029403;27;97133;-71
2021/05/17 06:39:15;;;;;;;0.52;0.52;;;12.10;72.70;;;15.54;56.69;100154.69;5042548;27;98003;-71
2021/05/17 06:41:44;;;;;;;0.10;0.10;;;12.00;72.60;;;15.46;57.54;100142.16;5047616;27;97219;-70
2021/05/17 06:44:13;;;;;;;0.40;0.17;;;12.00;72.70;;;15.38;57.04;100145.00;5041668;27;97322;-69
2021/05/17 06:46:43;;;;;;;0.22;0.22;;;12.00;72.70;;;15.31;57.49;100144.84;5025100;27;96981;-70
2021/05/17 06:49:12;;;;;;;0.17;0.15;;;11.90;72.70;;;15.23;57.90;100143.06;5044624;27;97808;-70
2021/05/17 06:51:42;;;;;;;3.38;1.67;;;11.80;72.70;;;15.16;57.29;100146.34;5017259;27;97326;-70
2021/05/17 06:54:14;;;;;;;0.15;0.15;;;11.80;72.80;;;15.16;57.89;100149.06;5049630;27;97310;-71
2021/05/17 06:56:49;;;;;;;0.22;0.22;;;11.70;72.90;;;15.11;57.22;100151.22;5050749;27;98183;-70
2021/05/17 06:59:19;;;;;;;0.20;0.20;;;11.70;73.00;;;15.12;57.82;100152.78;5047336;27;97665;-70
2021/05/17 07:01:48;;;;;;;0.90;0.65;;;11.60;73.00;;;15.17;57.27;100150.63;5044565;27;97470;-70
2021/05/17 07:04:17;;;;;;;2.42;0.47;;;11.60;73.10;;;15.19;58.04;100151.06;5028015;27;97104;-70
2021/05/17 07:06:55;;;;;;;0.55;0.22;;;11.60;73.20;;;15.34;57.21;100155.75;5041505;27;97353;-70
2021/05/17 07:12:13;;;;;;;0.20;0.20;;;11.70;73.30;;;15.68;56.29;100150.41;5048216;27;97473;-70
2021/05/17 07:14:42;;;;;;;0.40;0.40;;;11.90;73.40;;;15.78;56.37;100157.22;4999955;27;99254;-70
2021/05/17 07:17:10;;;;;;;0.10;0.10;;;12.00;73.30;;;15.84;57.11;100151.22;5042779;27;97921;-71
2021/05/17 07:19:38;;;;;;;0.43;0.43;;;12.10;73.30;;;15.93;56.16;100159.13;5045894;27;96894;-70
2021/05/17 07:24:54;;;;;;;0.10;0.10;;;12.20;73.20;;;15.97;57.42;100158.06;5043241;27;96784;-71
2021/05/17 07:27:23;;;;;;;0.10;0.10;;;12.30;73.20;;;15.99;57.26;100165.84;5046855;27;97213;-71
2021/05/17 07:29:52;;;;;;;0.20;0.20;;;12.30;73.10;;;16.06;56.84;100158.69;5047657;27;97200;-71
2021/05/17 07:32:20;;;;;;;0.10;0.10;;;12.40;73.00;;;16.14;57.29;100159.59;5030722;27;97531;-71
2021/05/17 07:34:48;;;;;;;0.35;0.30;;;12.40;73.00;;;16.28;56.03;100165.34;5046659;27;96859;-71
2021/05/17 07:37:19;;;;;;;0.10;0.10;;;12.50;73.10;;;16.34;57.30;100162.03;5044636;27;97889;-71
2021/05/17 07:39:47;;;;;;;0.20;0.20;;;12.60;73.20;;;16.47;56.47;100163.47;5050860;27;97303;-72
2021/05/17 07:42:15;;;;;;;4.70;0.65;;;12.60;73.10;;;16.59;56.73;100160.63;5048807;27;96787;-71
2021/05/17 07:44:43;;;;;;;0.45;0.45;;;12.80;73.20;;;16.67;56.05;100154.25;5008714;27;96774;-71
2021/05/17 07:47:12;;;;;;;0.00;0.00;;;12.80;73.00;;;16.67;56.66;100156.97;5025702;27;97924;-71
2021/05/17 07:49:41;;;;;;;0.20;0.20;;;12.90;73.00;;;16.79;56.85;100150.59;5030019;27;97905;-71
2021/05/17 07:52:10;;;;;;;1.00;0.73;;;13.00;73.00;;;16.87;55.75;100155.03;5026914;27;96855;-71
2021/05/17 07:54:39;;;;;;;0.32;0.17;;;13.00;72.90;;;16.79;56.58;100153.31;5029167;27;96900;-71
2021/05/17 07:57:08;;;;;;;0.63;0.63;;;13.10;72.80;;;16.78;56.85;100151.75;5028897;27;97894;-71
2021/05/17 07:59:36;;;;;;;0.30;0.30;;;13.10;72.80;;;16.67;56.48;100148.84;5047273;27;97733;-70
2021/05/17 08:02:05;;;;;;;0.20;0.20;;;13.10;72.70;;;16.59;57.10;100154.47;5044703;27;96634;-71
2021/05/17 08:04:33;;;;;;;0.38;0.38;;;13.10;72.70;;;16.44;56.93;100150.69;5029918;27;96830;-71
2021/05/17 08:07:03;;;;;;;0.30;0.30;;;13.00;72.60;;;16.38;57.25;100157.50;5026126;27;96900;-70
2021/05/17 08:09:32;;;;;;;0.40;0.40;;;13.00;72.80;;;16.31;57.87;100159.22;5029352;27;96900;-71
2021/05/17 08:12:02;;;;;;;0.00;0.00;;;12.90;72.90;;;16.22;57.51;100159.41;5047777;27;96822;-71
2021/05/17 08:14:31;;;;;;;0.13;0.13;;;12.90;73.00;;;16.14;57.85;100154.19;5032146;27;96778;-71
2021/05/17 08:16:59;;;;;;;0.10;0.10;;;12.80;73.00;;;16.12;58.57;100153.78;5015430;27;97681;-71
2021/05/17 08:19:32;;;;;;;0.43;0.30;;;12.80;73.10;;;16.23;57.45;100161.00;5029898;27;97715;-72
2021/05/17 08:22:03;;;;;;;0.20;0.20;;;12.70;73.30;;;16.39;57.57;100153.66;5031442;27;97604;-71
2021/05/17 08:24:31;;;;;;;0.05;0.05;;;12.80;73.40;;;16.65;57.65;100155.75;5044552;27;96954;-71
2021/05/17 08:27:05;;;;;;;0.00;0.00;;;12.90;73.60;;;17.16;56.40;100157.91;5033392;27;96966;-71
2021/05/17 08:29:37;;;;;;;0.10;0.10;;;13.10;73.90;;;17.89;55.90;100156.50;5048377;27;98340;-72
2021/05/17 08:32:09;;;;;;;0.32;0.32;;;13.50;74.30;;;18.41;55.17;100159.25;5030758;27;96911;-72
2021/05/17 08:34:38;;;;;;;0.10;0.10;;;13.90;74.10;;;18.52;55.31;100157.44;5044073;27;97289;-73
2021/05/17 08:37:07;;;;;;;0.00;0.00;;;14.20;73.50;;;18.44;55.48;100155.78;5010090;27;98935;-72
2021/05/17 08:39:36;;;;;;;0.00;0.00;;;14.40;73.00;;;18.12;56.43;100157.25;5023068;27;97475;-71
2021/05/17 08:42:06;;;;;;;0.10;0.10;;;14.40;72.60;;;18.01;56.63;100159.00;5029006;27;97163;-71
2021/05/17 08:44:37;;;;;;;0.05;0.05;;;14.40;72.60;;;17.80;57.33;100155.97;5043310;27;97622;-71
2021/05/17 08:47:07;;;;;;;0.47;0.47;;;14.30;72.50;;;17.74;57.71;100156.66;5032096;27;97470;-71
2021/05/17 08:49:35;;;;;;;6.88;1.20;;;14.20;72.50;;;17.70;57.23;100156.56;5024027;27;98114;-72
2021/05/17 08:52:07;;;;;;;0.20;0.20;;;14.20;72.60;;;17.82;57.53;100161.81;5028559;27;97666;-72
2021/05/17 08:54:36;;;;;;;0.20;0.20;;;14.20;72.90;;;18.10;57.03;100166.88;5030374;27;97010;-71
2021/05/17 08:57:06;;;;;;;0.38;0.38;;;14.30;73.00;;;18.31;56.60;100167.22;5045294;27;98274;-71
2021/05/17 08:59:35;;;;;;;0.10;0.10;;;14.40;73.00;;;18.40;56.50;100176.69;5043962;27;97764;-72
2021/05/17 09:02:03;;;;;;;0.38;0.28;;;;;;;18.69;56.47;100177.81;5039788;27;96835;-71
2021/05/17 09:04:32;;;;;;;0.00;0.00;;;14.70;72.80;;;18.82;56.59;100181.88;5042799;27;97018;-71
2021/05/17 09:07:03;;;;;;;0.05;0.05;;;14.90;73.20;;;18.94;55.88;100179.72;5027973;27;97272;-72
2021/05/17 09:09:36;;;;;;;0.57;0.57;;;15.00;72.80;;;18.67;56.81;100180.91;5029750;27;97741;-71
2021/05/17 09:12:11;;;;;;;0.00;0.00;;;15.00;72.40;;;18.23;57.67;100171.72;5038702;27;96994;-70
2021/05/17 09:14:41;;;;;;;2.55;0.40;;;14.90;72.30;;;17.94;58.22;100169.75;5025356;27;96876;-70
2021/05/17 09:17:12;;;;;;;0.00;0.00;;;14.80;72.30;;;17.67;57.99;100176.25;5045080;27;99190;-70
2021/05/17 09:19:42;;;;;;;0.05;0.05;;;14.60;72.40;;;17.34;58.76;100178.78;5027517;27;98188;-70
2021/05/17 09:22:16;;;;;;;0.75;0.47;;;14.30;72.50;;;17.18;59.17;100182.69;5041874;27;96733;-70
2021/05/17 09:24:49;;;;;;;0.00;0.00;;;14.20;72.70;;;17.07;59.19;100183.63;5044296;27;96818;-70
2021/05/17 09:27:21;;;;;;;;;;;14.00;72.80;;;17.04;59.13;100179.75;5043356;27;97862;-70
2021/05/17 09:29:53;;;;;;;0.17;0.17;;;13.90;73.10;;;17.03;59.35;100180.09;5040997;27;96871;-70
2021/05/17 09:32:27;;;;;;;0.00;0.00;;;13.80;73.20;;;17.03;58.91;100175.47;5048576;27;96907;-71
2021/05/17 09:35:07;;;;;;;5.28;1.00;;;13.70;73.30;;;17.26;58.68;100178.97;5030496;27;98441;-71
2021/05/17 09:37:47;;;;;;;0.57;0.57;;;13.70;73.70;;;17.72;57.39;100177.91;5023936;27;97843;-71
2021/05/17 09:40:22;;;;;;;0.25;0.08;;;13.80;74.10;;;18.53;55.82;100178.00;5007970;27;98073;-72
2021/05/17 09:43:04;;;;;;;0.20;0.20;;;14.10;74.50;;;19.46;54.89;100174.88;5030160;27;96862;-71
2021/05/17 09:45:49;;;;;;;0.08;0.08;;;14.60;74.50;;;19.96;54.50;100171.41;5045292;27;96867;-72
2021/05/17 09:48:20;;;;;;;0.30;0.28;;;15.10;73.70;;;19.93;54.01;100171.38;5030613;27;97480;-71
2021/05/17 09:51:03;;;;;;;0.10;0.10;;;15.50;73.20;;;19.88;54.73;100174.47;5032048;27;96849;-72
2021/05/17 09:53:35;;;;;;;0.10;0.10;;;15.70;72.80;;;19.75;55.53;100175.88;5051499;27;96817;-71
2021/05/17 09:56:11;;;;;;;0.32;0.32;;;15.70;72.30;;;19.63;56.20;100171.50;5032514;27;97457;-71
2021/05/17 09:58:43;;;;;;;0.40;0.40;;;15.70;72.20;;;19.58;56.41;100177.28;5029100;27;97825;-70
2021/05/17 10:01:16;;;;;;;0.00;0.00;;;15.70;72.30;;;19.47;55.98;100187.28;5045631;27;96851;-72
2021/05/17 10:03:48;;;;;;;2.47;1.02;;;15.70;72.30;;;19.35;56.98;100178.63;5025740;27;97654;-72
2021/05/17 10:06:23;;;;;;;0.20;0.20;;;15.70;72.40;;;19.27;57.32;100183.19;5044453;27;97775;-71
2021/05/17 10:08:54;;;;;;;0.00;0.00;;;15.70;72.30;;;19.51;56.49;100181.88;5026507;27;97867;-72
2021/05/17 10:11:25;;;;;;;0.00;0.00;;;15.70;72.70;;;19.97;55.61;100178.41;5044397;27;98029;-71
2021/05/17 10:13:55;;;;;;;0.20;0.20;;;15.90;73.10;;;20.45;55.34;100177.19;5049144;27;97053;-72
2021/05/17 10:16:24;;;;;;;0.30;0.30;;;16.20;73.10;;;20.78;55.46;100171.53;5029197;27;97319;-72
2021/05/17 10:18:53;;;;;;;0.43;0.25;;;16.40;72.70;;;21.09;54.23;100171.69;5027128;27;98034;-72
2021/05/17 10:21:22;;;;;;;0.05;0.05;;;16.70;72.50;;;21.52;54.08;100173.31;5047682;27;98005;-72
2021/05/17 10:23:51;;;;;;;0.52;0.43;;;17.00;72.50;;;21.90;54.24;100169.09;5046173;27;96759;-72
2021/05/17 10:26:25;;;;;;;0.10;0.10;;;17.40;72.40;;;22.28;53.12;100163.59;5016917;27;96875;-72
2021/05/17 10:29:00;;;;;;;0.00;0.00;;;17.70;72.10;;;22.58;53.29;100167.44;5032117;27;97919;-73
2021/05/17 10:31:30;;;;;;;0.25;0.25;;;18.10;71.70;;;22.82;53.46;100166.56;5048373;27;98054;-73
2021/05/17 10:34:03;;;;;;;0.15;0.15;;;18.40;71.40;;;23.09;52.92;100167.59;5015000;27;97138;-72
2021/05/17 10:36:53;;;;;;;0.38;0.25;;;18.60;70.90;;;23.23;53.05;100148.41;5046730;27;97179;-73
2021/05/17 10:39:28;;;;;;;15.88;0.82;;;18.90;70.70;;;23.17;53.51;100155.47;5046837;27;96789;-72
2021/05/17 10:42:12;;;;;;;0.20;0.20;;;19.00;70.20;;;23.35;53.75;100152.63;5048520;27;97737;-72
2021/05/17 10:48:23;;;;;;;0.32;0.22;;;19.30;70.50;;;23.29;54.37;100159.72;4987154;28;97032;-73